sensor_id;sensor_type;location;lat;lon;timestamp;temperature;humidity
8248;DHT22;4164;49.844;8.830;2023-05-10T00:01:06;13.40;1.00
8248;DHT22;4164;49.844;8.830;2023-05-10T00:03:31;13.40;1.00
8248;DHT22;4164;49.844;8.830;2023-05-10T00:05:57;13.30;1.00
8248;DHT22;4164;49.844;8.830;2023-05-10T00:08:22;13.20;1.00
8248;DHT22;4164;49.844;8.830;2023-05-10T00:10:48;13.20;1.00
8248;DHT22;4164;49.844;8.830;2023-05-10T00:13:14;13.20;1.00
8248;DHT22;4164;49.844;8.830;2023-05-10T00:15:39;13.30;1.00
8248;DHT22;4164;49.844;8.830;2023-05-10T00:18:05;13.20;1.00
8248;DHT22;4164;49.844;8.830;2023-05-10T00:20:30;13.20;1.00
8248;DHT22;4164;49.844;8.830;2023-05-10T00:22:56;13.30;1.00
8248;DHT22;4164;49.844;8.830;2023-05-10T00:25:21;13.30;1.00
8248;DHT22;4164;49.844;8.830;2023-05-10T00:27:47;13.30;1.00
8248;DHT22;4164;49.844;8.830;2023-05-10T00:30:13;13.20;1.00
8248;DHT22;4164;49.844;8.830;2023-05-10T00:32:39;13.20;2.10
8248;DHT22;4164;49.844;8.830;2023-05-10T00:35:05;13.20;2.00
8248;DHT22;4164;49.844;8.830;2023-05-10T00:37:30;13.30;8.00
8248;DHT22;4164;49.844;8.830;2023-05-10T00:39:56;13.30;7.70
8248;DHT22;4164;49.844;8.830;2023-05-10T00:42:21;13.40;7.60
8248;DHT22;4164;49.844;8.830;2023-05-10T00:44:47;13.50;5.00
8248;DHT22;4164;49.844;8.830;2023-05-10T00:47:13;13.40;1.00
8248;DHT22;4164;49.844;8.830;2023-05-10T00:49:39;13.40;1.00
8248;DHT22;4164;49.844;8.830;2023-05-10T00:52:05;13.30;1.00
8248;DHT22;4164;49.844;8.830;2023-05-10T00:54:31;13.30;1.00
8248;DHT22;4164;49.844;8.830;2023-05-10T00:56:57;13.30;1.00
8248;DHT22;4164;49.844;8.830;2023-05-10T00:59:22;13.20;1.00
8248;DHT22;4164;49.844;8.830;2023-05-10T01:01:48;13.10;1.00
8248;DHT22;4164;49.844;8.830;2023-05-10T01:04:14;13.10;1.00
8248;DHT22;4164;49.844;8.830;2023-05-10T01:06:43;13.10;1.00
8248;DHT22;4164;49.844;8.830;2023-05-10T01:09:09;13.10;1.00
8248;DHT22;4164;49.844;8.830;2023-05-10T01:11:37;13.10;1.00
8248;DHT22;4164;49.844;8.830;2023-05-10T01:14:03;13.10;1.00
8248;DHT22;4164;49.844;8.830;2023-05-10T01:16:33;13.10;1.00
8248;DHT22;4164;49.844;8.830;2023-05-10T01:18:59;13.10;1.00
8248;DHT22;4164;49.844;8.830;2023-05-10T01:21:48;13.10;1.00
8248;DHT22;4164;49.844;8.830;2023-05-10T01:30:26;13.10;1.00
8248;DHT22;4164;49.844;8.830;2023-05-10T01:33:39;13.10;1.00
8248;DHT22;4164;49.844;8.830;2023-05-10T01:36:21;13.20;1.00
8248;DHT22;4164;49.844;8.830;2023-05-10T01:39:14;13.10;1.00
8248;DHT22;4164;49.844;8.830;2023-05-10T01:41:49;13.10;1.00
8248;DHT22;4164;49.844;8.830;2023-05-10T01:47:01;13.10;1.00
8248;DHT22;4164;49.844;8.830;2023-05-10T01:49:33;13.10;1.00
8248;DHT22;4164;49.844;8.830;2023-05-10T01:52:06;13.10;1.00
8248;DHT22;4164;49.844;8.830;2023-05-10T01:54:33;13.10;1.00
8248;DHT22;4164;49.844;8.830;2023-05-10T01:57:06;13.10;1.00
8248;DHT22;4164;49.844;8.830;2023-05-10T01:59:35;13.00;1.00
8248;DHT22;4164;49.844;8.830;2023-05-10T02:02:04;13.00;1.00
8248;DHT22;4164;49.844;8.830;2023-05-10T02:04:31;13.00;1.00
8248;DHT22;4164;49.844;8.830;2023-05-10T02:06:58;13.00;1.00
8248;DHT22;4164;49.844;8.830;2023-05-10T02:09:25;12.90;1.00
8248;DHT22;4164;49.844;8.830;2023-05-10T02:11:53;12.90;1.00
8248;DHT22;4164;49.844;8.830;2023-05-10T02:14:20;13.00;1.00
8248;DHT22;4164;49.844;8.830;2023-05-10T02:16:47;13.00;1.00
8248;DHT22;4164;49.844;8.830;2023-05-10T02:19:15;13.00;1.00
8248;DHT22;4164;49.844;8.830;2023-05-10T02:21:42;13.00;1.00
8248;DHT22;4164;49.844;8.830;2023-05-10T02:24:08;13.00;1.00
8248;DHT22;4164;49.844;8.830;2023-05-10T02:26:36;13.00;1.00
8248;DHT22;4164;49.844;8.830;2023-05-10T02:29:03;12.90;1.00
8248;DHT22;4164;49.844;8.830;2023-05-10T02:31:32;12.90;1.00
8248;DHT22;4164;49.844;8.830;2023-05-10T02:33:59;12.90;1.00
8248;DHT22;4164;49.844;8.830;2023-05-10T02:36:26;12.90;1.00
8248;DHT22;4164;49.844;8.830;2023-05-10T02:38:56;12.90;1.00
8248;DHT22;4164;49.844;8.830;2023-05-10T02:41:22;12.80;1.00
8248;DHT22;4164;49.844;8.830;2023-05-10T02:43:50;12.80;1.00
8248;DHT22;4164;49.844;8.830;2023-05-10T02:46:17;12.80;1.00
8248;DHT22;4164;49.844;8.830;2023-05-10T02:48:43;12.80;1.00
8248;DHT22;4164;49.844;8.830;2023-05-10T02:51:12;12.90;1.00
8248;DHT22;4164;49.844;8.830;2023-05-10T02:53:43;12.90;1.00
8248;DHT22;4164;49.844;8.830;2023-05-10T02:56:15;12.90;1.00
8248;DHT22;4164;49.844;8.830;2023-05-10T02:58:43;12.90;1.00
8248;DHT22;4164;49.844;8.830;2023-05-10T03:01:09;13.00;1.00
8248;DHT22;4164;49.844;8.830;2023-05-10T03:03:34;13.00;1.00
8248;DHT22;4164;49.844;8.830;2023-05-10T03:06:00;13.00;1.00
8248;DHT22;4164;49.844;8.830;2023-05-10T03:08:26;13.00;1.00
8248;DHT22;4164;49.844;8.830;2023-05-10T03:11:15;13.00;1.00
8248;DHT22;4164;49.844;8.830;2023-05-10T03:14:10;13.00;1.00
8248;DHT22;4164;49.844;8.830;2023-05-10T03:17:10;13.00;1.00
8248;DHT22;4164;49.844;8.830;2023-05-10T03:19:42;13.00;1.00
8248;DHT22;4164;49.844;8.830;2023-05-10T03:22:10;13.00;1.00
8248;DHT22;4164;49.844;8.830;2023-05-10T03:24:36;13.00;1.00
8248;DHT22;4164;49.844;8.830;2023-05-10T03:27:05;13.00;1.00
8248;DHT22;4164;49.844;8.830;2023-05-10T03:29:31;13.10;1.00
8248;DHT22;4164;49.844;8.830;2023-05-10T03:31:58;13.10;1.00
8248;DHT22;4164;49.844;8.830;2023-05-10T03:34:25;13.10;1.00
8248;DHT22;4164;49.844;8.830;2023-05-10T03:36:51;13.10;1.00
8248;DHT22;4164;49.844;8.830;2023-05-10T03:39:16;13.00;1.00
8248;DHT22;4164;49.844;8.830;2023-05-10T03:41:42;13.00;1.00
8248;DHT22;4164;49.844;8.830;2023-05-10T03:44:07;13.00;1.00
8248;DHT22;4164;49.844;8.830;2023-05-10T03:46:33;12.90;1.00
8248;DHT22;4164;49.844;8.830;2023-05-10T03:48:58;12.90;1.00
8248;DHT22;4164;49.844;8.830;2023-05-10T03:51:24;12.90;1.00
8248;DHT22;4164;49.844;8.830;2023-05-10T03:53:53;12.80;1.00
8248;DHT22;4164;49.844;8.830;2023-05-10T03:56:19;12.90;1.00
8248;DHT22;4164;49.844;8.830;2023-05-10T03:58:46;12.90;1.00
8248;DHT22;4164;49.844;8.830;2023-05-10T04:01:11;12.90;1.00
8248;DHT22;4164;49.844;8.830;2023-05-10T04:03:37;13.00;1.00
8248;DHT22;4164;49.844;8.830;2023-05-10T04:06:03;13.10;1.00
8248;DHT22;4164;49.844;8.830;2023-05-10T04:08:29;13.00;1.00
8248;DHT22;4164;49.844;8.830;2023-05-10T04:11:05;13.10;1.00
8248;DHT22;4164;49.844;8.830;2023-05-10T04:13:31;13.10;1.00
8248;DHT22;4164;49.844;8.830;2023-05-10T04:15:57;13.10;1.00
8248;DHT22;4164;49.844;8.830;2023-05-10T04:18:23;13.00;1.00
8248;DHT22;4164;49.844;8.830;2023-05-10T04:20:48;13.00;1.00
8248;DHT22;4164;49.844;8.830;2023-05-10T04:23:14;13.00;1.00
8248;DHT22;4164;49.844;8.830;2023-05-10T04:25:42;13.10;1.00
8248;DHT22;4164;49.844;8.830;2023-05-10T04:28:07;13.10;1.00
8248;DHT22;4164;49.844;8.830;2023-05-10T04:30:33;13.10;1.00
8248;DHT22;4164;49.844;8.830;2023-05-10T04:32:58;13.20;1.00
8248;DHT22;4164;49.844;8.830;2023-05-10T04:35:24;13.30;1.00
8248;DHT22;4164;49.844;8.830;2023-05-10T04:37:49;13.40;1.00
8248;DHT22;4164;49.844;8.830;2023-05-10T04:40:15;13.60;1.00
8248;DHT22;4164;49.844;8.830;2023-05-10T04:42:41;13.60;1.00
8248;DHT22;4164;49.844;8.830;2023-05-10T04:45:07;13.60;1.00
8248;DHT22;4164;49.844;8.830;2023-05-10T04:47:32;13.70;1.00
8248;DHT22;4164;49.844;8.830;2023-05-10T04:49:58;13.70;1.00
8248;DHT22;4164;49.844;8.830;2023-05-10T04:52:24;13.70;1.00
8248;DHT22;4164;49.844;8.830;2023-05-10T04:54:49;13.60;1.00
8248;DHT22;4164;49.844;8.830;2023-05-10T04:57:16;13.50;1.00
8248;DHT22;4164;49.844;8.830;2023-05-10T04:59:41;13.40;1.00
8248;DHT22;4164;49.844;8.830;2023-05-10T05:02:07;13.40;1.00
8248;DHT22;4164;49.844;8.830;2023-05-10T05:04:33;13.40;1.00
8248;DHT22;4164;49.844;8.830;2023-05-10T05:06:59;13.40;1.00
8248;DHT22;4164;49.844;8.830;2023-05-10T05:09:24;13.40;1.00
8248;DHT22;4164;49.844;8.830;2023-05-10T05:11:50;13.50;1.00
8248;DHT22;4164;49.844;8.830;2023-05-10T05:14:15;13.50;1.00
8248;DHT22;4164;49.844;8.830;2023-05-10T05:16:41;13.50;1.00
8248;DHT22;4164;49.844;8.830;2023-05-10T05:19:06;13.50;1.00
8248;DHT22;4164;49.844;8.830;2023-05-10T05:21:32;13.40;1.00
8248;DHT22;4164;49.844;8.830;2023-05-10T05:23:58;13.50;1.00
8248;DHT22;4164;49.844;8.830;2023-05-10T05:26:23;13.40;1.00
8248;DHT22;4164;49.844;8.830;2023-05-10T05:28:49;13.40;1.00
8248;DHT22;4164;49.844;8.830;2023-05-10T05:31:17;13.50;1.00
8248;DHT22;4164;49.844;8.830;2023-05-10T05:33:43;13.50;1.00
8248;DHT22;4164;49.844;8.830;2023-05-10T05:36:09;13.50;1.00
8248;DHT22;4164;49.844;8.830;2023-05-10T05:38:34;13.50;1.00
8248;DHT22;4164;49.844;8.830;2023-05-10T05:41:00;13.50;1.00
8248;DHT22;4164;49.844;8.830;2023-05-10T05:43:26;13.60;1.00
8248;DHT22;4164;49.844;8.830;2023-05-10T05:45:54;13.60;1.00
8248;DHT22;4164;49.844;8.830;2023-05-10T05:48:20;13.60;1.00
8248;DHT22;4164;49.844;8.830;2023-05-10T05:50:46;13.60;1.00
8248;DHT22;4164;49.844;8.830;2023-05-10T05:53:11;13.60;1.00
8248;DHT22;4164;49.844;8.830;2023-05-10T05:55:37;13.60;1.00
8248;DHT22;4164;49.844;8.830;2023-05-10T05:58:03;13.70;1.00
8248;DHT22;4164;49.844;8.830;2023-05-10T06:00:28;13.70;99.90
8248;DHT22;4164;49.844;8.830;2023-05-10T06:02:54;13.90;99.90
8248;DHT22;4164;49.844;8.830;2023-05-10T06:05:19;14.00;99.90
8248;DHT22;4164;49.844;8.830;2023-05-10T06:07:46;14.00;99.90
8248;DHT22;4164;49.844;8.830;2023-05-10T06:10:11;14.00;99.90
8248;DHT22;4164;49.844;8.830;2023-05-10T06:12:37;13.90;99.90
8248;DHT22;4164;49.844;8.830;2023-05-10T06:15:03;13.90;99.90
8248;DHT22;4164;49.844;8.830;2023-05-10T06:17:29;13.90;99.90
8248;DHT22;4164;49.844;8.830;2023-05-10T06:19:55;14.00;99.90
8248;DHT22;4164;49.844;8.830;2023-05-10T06:22:21;14.00;99.90
8248;DHT22;4164;49.844;8.830;2023-05-10T06:24:49;14.10;99.90
8248;DHT22;4164;49.844;8.830;2023-05-10T06:27:15;14.20;99.90
8248;DHT22;4164;49.844;8.830;2023-05-10T06:29:40;14.30;99.90
8248;DHT22;4164;49.844;8.830;2023-05-10T06:32:09;14.30;99.90
8248;DHT22;4164;49.844;8.830;2023-05-10T06:34:35;14.30;99.90
8248;DHT22;4164;49.844;8.830;2023-05-10T06:37:00;14.50;99.90
8248;DHT22;4164;49.844;8.830;2023-05-10T06:39:26;14.40;77.80
8248;DHT22;4164;49.844;8.830;2023-05-10T06:41:51;14.20;92.90
8248;DHT22;4164;49.844;8.830;2023-05-10T06:44:17;14.20;99.90
8248;DHT22;4164;49.844;8.830;2023-05-10T06:46:43;14.10;99.90
8248;DHT22;4164;49.844;8.830;2023-05-10T06:49:08;14.40;99.90
8248;DHT22;4164;49.844;8.830;2023-05-10T06:51:34;14.40;1.00
8248;DHT22;4164;49.844;8.830;2023-05-10T06:53:59;14.30;63.10
8248;DHT22;4164;49.844;8.830;2023-05-10T06:56:25;14.30;99.90
8248;DHT22;4164;49.844;8.830;2023-05-10T06:58:51;14.50;99.90
8248;DHT22;4164;49.844;8.830;2023-05-10T07:01:16;14.50;99.90
8248;DHT22;4164;49.844;8.830;2023-05-10T07:03:42;14.70;99.90
8248;DHT22;4164;49.844;8.830;2023-05-10T07:06:07;14.60;99.90
8248;DHT22;4164;49.844;8.830;2023-05-10T07:08:34;14.80;99.90
8248;DHT22;4164;49.844;8.830;2023-05-10T07:11:03;15.10;98.80
8248;DHT22;4164;49.844;8.830;2023-05-10T07:13:31;15.00;61.80
8248;DHT22;4164;49.844;8.830;2023-05-10T07:15:57;15.00;22.80
8248;DHT22;4164;49.844;8.830;2023-05-10T07:18:24;15.00;1.00
8248;DHT22;4164;49.844;8.830;2023-05-10T07:20:49;15.00;1.00
8248;DHT22;4164;49.844;8.830;2023-05-10T07:23:15;14.90;35.10
8248;DHT22;4164;49.844;8.830;2023-05-10T07:25:45;14.80;1.00
8248;DHT22;4164;49.844;8.830;2023-05-10T07:28:11;14.80;28.90
8248;DHT22;4164;49.844;8.830;2023-05-10T07:30:36;15.00;1.00
8248;DHT22;4164;49.844;8.830;2023-05-10T07:33:02;15.00;1.00
8248;DHT22;4164;49.844;8.830;2023-05-10T07:35:27;14.80;1.00
8248;DHT22;4164;49.844;8.830;2023-05-10T07:37:56;15.00;99.90
8248;DHT22;4164;49.844;8.830;2023-05-10T07:40:21;15.00;1.00
8248;DHT22;4164;49.844;8.830;2023-05-10T07:42:47;15.00;1.00
8248;DHT22;4164;49.844;8.830;2023-05-10T07:45:13;15.10;1.00
8248;DHT22;4164;49.844;8.830;2023-05-10T07:47:38;15.30;1.00
8248;DHT22;4164;49.844;8.830;2023-05-10T07:50:04;15.30;1.00
8248;DHT22;4164;49.844;8.830;2023-05-10T07:52:30;15.70;1.00
8248;DHT22;4164;49.844;8.830;2023-05-10T07:54:55;15.60;99.90
8248;DHT22;4164;49.844;8.830;2023-05-10T07:57:22;15.50;1.00
8248;DHT22;4164;49.844;8.830;2023-05-10T07:59:47;15.60;1.00
8248;DHT22;4164;49.844;8.830;2023-05-10T08:02:13;15.70;99.90
8248;DHT22;4164;49.844;8.830;2023-05-10T08:04:38;15.60;99.90
8248;DHT22;4164;49.844;8.830;2023-05-10T08:07:04;15.80;99.90
8248;DHT22;4164;49.844;8.830;2023-05-10T08:09:29;15.90;34.00
8248;DHT22;4164;49.844;8.830;2023-05-10T08:11:55;15.70;87.50
8248;DHT22;4164;49.844;8.830;2023-05-10T08:14:20;15.80;75.90
8248;DHT22;4164;49.844;8.830;2023-05-10T08:16:46;15.70;1.00
8248;DHT22;4164;49.844;8.830;2023-05-10T08:19:12;16.00;1.00
8248;DHT22;4164;49.844;8.830;2023-05-10T08:21:37;16.10;1.00
8248;DHT22;4164;49.844;8.830;2023-05-10T08:24:03;16.20;1.00
8248;DHT22;4164;49.844;8.830;2023-05-10T08:26:30;16.20;1.00
8248;DHT22;4164;49.844;8.830;2023-05-10T08:28:55;16.20;99.90
8248;DHT22;4164;49.844;8.830;2023-05-10T08:31:21;15.80;1.00
8248;DHT22;4164;49.844;8.830;2023-05-10T08:33:46;15.80;99.90
8248;DHT22;4164;49.844;8.830;2023-05-10T08:36:12;16.10;99.90
8248;DHT22;4164;49.844;8.830;2023-05-10T08:38:39;16.20;99.90
8248;DHT22;4164;49.844;8.830;2023-05-10T08:41:05;16.30;99.90
8248;DHT22;4164;49.844;8.830;2023-05-10T08:43:31;16.40;99.90
8248;DHT22;4164;49.844;8.830;2023-05-10T08:46:00;16.20;99.90
8248;DHT22;4164;49.844;8.830;2023-05-10T08:48:29;15.90;99.90
8248;DHT22;4164;49.844;8.830;2023-05-10T08:50:58;15.70;1.00
8248;DHT22;4164;49.844;8.830;2023-05-10T08:53:24;15.60;1.00
8248;DHT22;4164;49.844;8.830;2023-05-10T08:55:52;15.50;1.00
8248;DHT22;4164;49.844;8.830;2023-05-10T08:58:19;15.50;1.00
8248;DHT22;4164;49.844;8.830;2023-05-10T09:00:45;15.70;99.90
8248;DHT22;4164;49.844;8.830;2023-05-10T09:03:12;15.50;1.00
8248;DHT22;4164;49.844;8.830;2023-05-10T09:05:38;15.80;1.00
8248;DHT22;4164;49.844;8.830;2023-05-10T09:08:03;15.90;99.90
8248;DHT22;4164;49.844;8.830;2023-05-10T09:10:30;15.80;84.30
8248;DHT22;4164;49.844;8.830;2023-05-10T09:12:56;16.00;99.90
8248;DHT22;4164;49.844;8.830;2023-05-10T09:15:22;16.20;99.90
8248;DHT22;4164;49.844;8.830;2023-05-10T09:17:49;16.30;1.00
8248;DHT22;4164;49.844;8.830;2023-05-10T09:20:17;15.90;1.00
8248;DHT22;4164;49.844;8.830;2023-05-10T09:22:43;16.40;1.00
8248;DHT22;4164;49.844;8.830;2023-05-10T09:25:10;16.70;99.90
8248;DHT22;4164;49.844;8.830;2023-05-10T09:27:38;16.30;99.90
8248;DHT22;4164;49.844;8.830;2023-05-10T09:30:04;16.20;1.00
8248;DHT22;4164;49.844;8.830;2023-05-10T09:32:39;16.20;1.00
8248;DHT22;4164;49.844;8.830;2023-05-10T09:35:19;16.20;1.00
8248;DHT22;4164;49.844;8.830;2023-05-10T09:37:46;16.20;99.90
8248;DHT22;4164;49.844;8.830;2023-05-10T09:40:18;16.40;99.90
8248;DHT22;4164;49.844;8.830;2023-05-10T09:42:54;16.50;1.00
8248;DHT22;4164;49.844;8.830;2023-05-10T09:45:21;16.80;1.00
8248;DHT22;4164;49.844;8.830;2023-05-10T09:47:47;17.30;1.00
8248;DHT22;4164;49.844;8.830;2023-05-10T09:50:12;17.60;99.90
8248;DHT22;4164;49.844;8.830;2023-05-10T09:52:58;17.20;99.90
8248;DHT22;4164;49.844;8.830;2023-05-10T09:55:39;17.50;99.90
8248;DHT22;4164;49.844;8.830;2023-05-10T09:58:06;17.40;1.00
8248;DHT22;4164;49.844;8.830;2023-05-10T10:00:43;17.10;1.00
8248;DHT22;4164;49.844;8.830;2023-05-10T10:03:14;16.90;1.00
8248;DHT22;4164;49.844;8.830;2023-05-10T10:05:41;16.50;1.00
8248;DHT22;4164;49.844;8.830;2023-05-10T10:08:08;16.40;1.00
8248;DHT22;4164;49.844;8.830;2023-05-10T10:10:33;16.20;1.00
8248;DHT22;4164;49.844;8.830;2023-05-10T10:12:59;16.00;1.00
8248;DHT22;4164;49.844;8.830;2023-05-10T10:15:25;15.30;99.90
8248;DHT22;4164;49.844;8.830;2023-05-10T10:17:52;14.90;1.00
8248;DHT22;4164;49.844;8.830;2023-05-10T10:20:19;14.90;99.90
8248;DHT22;4164;49.844;8.830;2023-05-10T10:22:45;14.90;20.80
8248;DHT22;4164;49.844;8.830;2023-05-10T10:25:12;14.80;1.00
8248;DHT22;4164;49.844;8.830;2023-05-10T10:33:36;14.90;99.90
8248;DHT22;4164;49.844;8.830;2023-05-10T10:36:04;15.00;99.90
8248;DHT22;4164;49.844;8.830;2023-05-10T10:39:00;15.40;99.90
8248;DHT22;4164;49.844;8.830;2023-05-10T10:41:37;15.40;50.50
8248;DHT22;4164;49.844;8.830;2023-05-10T10:44:25;15.80;1.00
8248;DHT22;4164;49.844;8.830;2023-05-10T10:49:49;16.30;99.90
8248;DHT22;4164;49.844;8.830;2023-05-10T10:52:28;16.80;99.50
8248;DHT22;4164;49.844;8.830;2023-05-10T10:55:22;16.90;99.90
8248;DHT22;4164;49.844;8.830;2023-05-10T10:57:56;17.00;1.00
8248;DHT22;4164;49.844;8.830;2023-05-10T11:00:33;17.10;1.00
8248;DHT22;4164;49.844;8.830;2023-05-10T11:03:10;17.20;1.00
8248;DHT22;4164;49.844;8.830;2023-05-10T11:05:47;17.10;99.90
8248;DHT22;4164;49.844;8.830;2023-05-10T11:08:17;17.00;99.90
8248;DHT22;4164;49.844;8.830;2023-05-10T11:11:02;17.30;99.90
8248;DHT22;4164;49.844;8.830;2023-05-10T11:13:39;17.60;57.00
8248;DHT22;4164;49.844;8.830;2023-05-10T11:16:14;17.60;26.10
8248;DHT22;4164;49.844;8.830;2023-05-10T11:18:40;18.00;1.50
8248;DHT22;4164;49.844;8.830;2023-05-10T11:21:09;18.50;1.00
8248;DHT22;4164;49.844;8.830;2023-05-10T11:26:11;17.50;1.00
8248;DHT22;4164;49.844;8.830;2023-05-10T11:31:09;16.80;1.00
8248;DHT22;4164;49.844;8.830;2023-05-10T11:33:49;16.80;1.00
8248;DHT22;4164;49.844;8.830;2023-05-10T11:36:37;16.40;1.00
8248;DHT22;4164;49.844;8.830;2023-05-10T11:39:02;16.10;1.00
8248;DHT22;4164;49.844;8.830;2023-05-10T11:41:29;16.40;1.00
8248;DHT22;4164;49.844;8.830;2023-05-10T11:43:56;17.00;1.00
8248;DHT22;4164;49.844;8.830;2023-05-10T11:46:25;16.90;1.00
8248;DHT22;4164;49.844;8.830;2023-05-10T11:48:53;16.50;1.00
8248;DHT22;4164;49.844;8.830;2023-05-10T11:51:23;16.70;1.00
8248;DHT22;4164;49.844;8.830;2023-05-10T11:53:50;16.60;1.00
8248;DHT22;4164;49.844;8.830;2023-05-10T11:56:16;16.50;1.00
8248;DHT22;4164;49.844;8.830;2023-05-10T11:58:42;16.90;1.00
8248;DHT22;4164;49.844;8.830;2023-05-10T12:01:09;17.30;1.00
8248;DHT22;4164;49.844;8.830;2023-05-10T12:03:35;17.40;1.00
8248;DHT22;4164;49.844;8.830;2023-05-10T12:06:02;17.10;1.00
8248;DHT22;4164;49.844;8.830;2023-05-10T12:08:29;17.30;1.00
8248;DHT22;4164;49.844;8.830;2023-05-10T12:11:09;17.40;1.00
8248;DHT22;4164;49.844;8.830;2023-05-10T12:13:38;17.80;1.00
8248;DHT22;4164;49.844;8.830;2023-05-10T12:16:24;17.70;1.00
8248;DHT22;4164;49.844;8.830;2023-05-10T12:18:55;19.20;1.00
8248;DHT22;4164;49.844;8.830;2023-05-10T12:21:21;20.90;1.00
8248;DHT22;4164;49.844;8.830;2023-05-10T12:23:52;20.40;1.00
8248;DHT22;4164;49.844;8.830;2023-05-10T12:26:18;20.10;99.90
8248;DHT22;4164;49.844;8.830;2023-05-10T12:28:44;19.70;99.90
8248;DHT22;4164;49.844;8.830;2023-05-10T12:31:09;19.90;99.90
8248;DHT22;4164;49.844;8.830;2023-05-10T12:33:40;19.60;99.90
8248;DHT22;4164;49.844;8.830;2023-05-10T12:36:16;20.50;99.90
8248;DHT22;4164;49.844;8.830;2023-05-10T12:38:43;20.20;99.90
8248;DHT22;4164;49.844;8.830;2023-05-10T12:41:11;20.90;99.90
8248;DHT22;4164;49.844;8.830;2023-05-10T12:43:37;20.30;99.90
8248;DHT22;4164;49.844;8.830;2023-05-10T12:46:10;20.20;99.90
8248;DHT22;4164;49.844;8.830;2023-05-10T12:48:37;19.80;99.90
8248;DHT22;4164;49.844;8.830;2023-05-10T12:51:04;19.50;99.90
8248;DHT22;4164;49.844;8.830;2023-05-10T12:53:30;19.60;99.90
8248;DHT22;4164;49.844;8.830;2023-05-10T12:55:56;19.60;99.90
8248;DHT22;4164;49.844;8.830;2023-05-10T12:58:22;20.40;99.90
8248;DHT22;4164;49.844;8.830;2023-05-10T13:00:47;20.60;99.90
8248;DHT22;4164;49.844;8.830;2023-05-10T13:03:13;20.10;99.90
8248;DHT22;4164;49.844;8.830;2023-05-10T13:05:39;20.70;99.90
8248;DHT22;4164;49.844;8.830;2023-05-10T13:08:05;20.00;99.90
8248;DHT22;4164;49.844;8.830;2023-05-10T13:10:31;19.80;99.90
8248;DHT22;4164;49.844;8.830;2023-05-10T13:13:00;19.50;99.90
8248;DHT22;4164;49.844;8.830;2023-05-10T13:15:26;19.70;99.90
8248;DHT22;4164;49.844;8.830;2023-05-10T13:17:52;20.00;99.90
8248;DHT22;4164;49.844;8.830;2023-05-10T13:20:18;20.50;99.90
8248;DHT22;4164;49.844;8.830;2023-05-10T13:22:44;20.10;99.90
8248;DHT22;4164;49.844;8.830;2023-05-10T13:25:10;19.90;99.90
8248;DHT22;4164;49.844;8.830;2023-05-10T13:27:37;19.70;99.90
8248;DHT22;4164;49.844;8.830;2023-05-10T13:30:03;19.90;99.90
8248;DHT22;4164;49.844;8.830;2023-05-10T13:32:29;18.60;99.90
8248;DHT22;4164;49.844;8.830;2023-05-10T13:34:55;18.50;99.90
8248;DHT22;4164;49.844;8.830;2023-05-10T13:37:20;18.10;99.90
8248;DHT22;4164;49.844;8.830;2023-05-10T13:39:47;18.40;99.90
8248;DHT22;4164;49.844;8.830;2023-05-10T13:42:12;18.50;99.90
8248;DHT22;4164;49.844;8.830;2023-05-10T13:44:38;18.50;99.90
8248;DHT22;4164;49.844;8.830;2023-05-10T13:47:04;18.50;99.90
8248;DHT22;4164;49.844;8.830;2023-05-10T13:49:30;18.30;99.90
8248;DHT22;4164;49.844;8.830;2023-05-10T13:51:55;18.10;99.90
8248;DHT22;4164;49.844;8.830;2023-05-10T13:54:21;17.70;99.90
8248;DHT22;4164;49.844;8.830;2023-05-10T13:56:47;17.60;99.90
8248;DHT22;4164;49.844;8.830;2023-05-10T13:59:14;17.90;99.90
8248;DHT22;4164;49.844;8.830;2023-05-10T14:01:40;17.80;99.90
8248;DHT22;4164;49.844;8.830;2023-05-10T14:04:06;18.30;99.90
8248;DHT22;4164;49.844;8.830;2023-05-10T14:06:33;18.40;99.90
8248;DHT22;4164;49.844;8.830;2023-05-10T14:08:59;18.40;99.90
8248;DHT22;4164;49.844;8.830;2023-05-10T14:11:24;18.40;99.90
8248;DHT22;4164;49.844;8.830;2023-05-10T14:13:50;18.70;99.90
8248;DHT22;4164;49.844;8.830;2023-05-10T14:16:15;18.60;99.90
8248;DHT22;4164;49.844;8.830;2023-05-10T14:18:41;19.30;99.90
8248;DHT22;4164;49.844;8.830;2023-05-10T14:21:07;19.20;99.90
8248;DHT22;4164;49.844;8.830;2023-05-10T14:23:32;18.70;99.90
8248;DHT22;4164;49.844;8.830;2023-05-10T14:25:58;18.70;99.90
8248;DHT22;4164;49.844;8.830;2023-05-10T14:28:23;19.00;99.90
8248;DHT22;4164;49.844;8.830;2023-05-10T14:30:50;18.80;99.90
8248;DHT22;4164;49.844;8.830;2023-05-10T14:33:17;18.50;99.90
8248;DHT22;4164;49.844;8.830;2023-05-10T14:35:42;18.90;99.90
8248;DHT22;4164;49.844;8.830;2023-05-10T14:38:08;18.70;99.90
8248;DHT22;4164;49.844;8.830;2023-05-10T14:40:36;18.30;99.90
8248;DHT22;4164;49.844;8.830;2023-05-10T14:43:02;18.30;99.90
8248;DHT22;4164;49.844;8.830;2023-05-10T14:45:27;18.20;99.90
8248;DHT22;4164;49.844;8.830;2023-05-10T14:47:53;18.00;99.90
8248;DHT22;4164;49.844;8.830;2023-05-10T14:50:19;17.90;99.90
8248;DHT22;4164;49.844;8.830;2023-05-10T14:52:44;18.00;99.90
8248;DHT22;4164;49.844;8.830;2023-05-10T14:55:10;18.40;99.90
8248;DHT22;4164;49.844;8.830;2023-05-10T14:57:36;18.60;99.90
8248;DHT22;4164;49.844;8.830;2023-05-10T15:00:02;18.90;99.90
8248;DHT22;4164;49.844;8.830;2023-05-10T15:02:29;19.10;99.90
8248;DHT22;4164;49.844;8.830;2023-05-10T15:04:54;19.60;99.90
8248;DHT22;4164;49.844;8.830;2023-05-10T15:07:20;19.10;99.90
8248;DHT22;4164;49.844;8.830;2023-05-10T15:09:45;19.00;99.90
8248;DHT22;4164;49.844;8.830;2023-05-10T15:12:11;18.70;99.90
8248;DHT22;4164;49.844;8.830;2023-05-10T15:14:37;19.10;99.90
8248;DHT22;4164;49.844;8.830;2023-05-10T15:17:02;19.20;99.90
8248;DHT22;4164;49.844;8.830;2023-05-10T15:19:28;19.10;99.90
8248;DHT22;4164;49.844;8.830;2023-05-10T15:21:54;19.10;99.90
8248;DHT22;4164;49.844;8.830;2023-05-10T15:24:21;18.80;99.90
8248;DHT22;4164;49.844;8.830;2023-05-10T15:26:46;19.00;99.90
8248;DHT22;4164;49.844;8.830;2023-05-10T15:29:12;18.90;99.90
8248;DHT22;4164;49.844;8.830;2023-05-10T15:31:48;18.90;99.90
8248;DHT22;4164;49.844;8.830;2023-05-10T15:34:14;18.80;99.90
8248;DHT22;4164;49.844;8.830;2023-05-10T15:36:40;18.70;99.90
8248;DHT22;4164;49.844;8.830;2023-05-10T15:39:06;18.20;99.90
8248;DHT22;4164;49.844;8.830;2023-05-10T15:41:31;17.90;99.90
8248;DHT22;4164;49.844;8.830;2023-05-10T15:43:57;18.00;99.90
8248;DHT22;4164;49.844;8.830;2023-05-10T15:46:25;18.40;99.90
8248;DHT22;4164;49.844;8.830;2023-05-10T15:48:50;18.20;99.90
8248;DHT22;4164;49.844;8.830;2023-05-10T15:51:16;18.30;99.90
8248;DHT22;4164;49.844;8.830;2023-05-10T15:53:42;18.30;99.90
8248;DHT22;4164;49.844;8.830;2023-05-10T15:56:07;17.90;99.90
8248;DHT22;4164;49.844;8.830;2023-05-10T15:58:33;18.00;99.90
8248;DHT22;4164;49.844;8.830;2023-05-10T16:00:59;17.80;99.90
8248;DHT22;4164;49.844;8.830;2023-05-10T16:03:24;17.90;99.90
8248;DHT22;4164;49.844;8.830;2023-05-10T16:05:50;18.10;99.90
8248;DHT22;4164;49.844;8.830;2023-05-10T16:08:16;18.20;99.90
8248;DHT22;4164;49.844;8.830;2023-05-10T16:10:42;18.10;99.90
8248;DHT22;4164;49.844;8.830;2023-05-10T16:13:07;18.30;99.90
8248;DHT22;4164;49.844;8.830;2023-05-10T16:15:33;18.30;99.90
8248;DHT22;4164;49.844;8.830;2023-05-10T16:17:58;18.30;99.90
8248;DHT22;4164;49.844;8.830;2023-05-10T16:20:24;18.30;99.90
8248;DHT22;4164;49.844;8.830;2023-05-10T16:22:50;18.10;99.90
8248;DHT22;4164;49.844;8.830;2023-05-10T16:25:15;17.70;99.90
8248;DHT22;4164;49.844;8.830;2023-05-10T16:27:41;17.70;99.90
8248;DHT22;4164;49.844;8.830;2023-05-10T16:30:08;17.90;99.90
8248;DHT22;4164;49.844;8.830;2023-05-10T16:32:33;17.80;99.90
8248;DHT22;4164;49.844;8.830;2023-05-10T16:35:02;17.90;99.90